createdAt,value
2018-09-29T00:01:44.841Z,98.10
2018-09-29T00:04:13.768Z,98.10
2018-09-29T00:06:42.659Z,98.40
2018-09-29T00:09:12.639Z,98.50
2018-09-29T00:11:41.712Z,98.70
2018-09-29T00:14:11.462Z,98.80
2018-09-29T00:16:40.494Z,99.00
2018-09-29T00:19:09.351Z,99.30
2018-09-29T00:21:38.241Z,99.30
2018-09-29T00:24:07.080Z,99.50
2018-09-29T00:26:36.024Z,99.50
2018-09-29T00:29:04.929Z,99.60
2018-09-29T00:31:33.824Z,99.60
2018-09-29T00:34:02.746Z,99.70
2018-09-29T00:36:31.613Z,99.70
2018-09-29T00:39:00.494Z,99.90
2018-09-29T00:41:29.445Z,99.90
2018-09-29T00:43:58.307Z,99.90
2018-09-29T00:46:27.207Z,99.90
2018-09-29T00:48:56.145Z,99.90
2018-09-29T00:51:24.991Z,99.90
2018-09-29T00:53:53.867Z,99.90
2018-09-29T00:56:22.756Z,99.90
2018-09-29T00:58:51.648Z,99.90
2018-09-29T01:01:20.548Z,99.90
2018-09-29T01:03:49.435Z,99.90
2018-09-29T01:06:18.325Z,99.90
2018-09-29T01:08:47.220Z,99.90
2018-09-29T01:11:16.100Z,99.90
2018-09-29T01:13:45.006Z,99.90
2018-09-29T01:16:13.884Z,99.90
2018-09-29T01:18:42.797Z,99.90
2018-09-29T01:21:11.721Z,99.90
2018-09-29T01:23:40.631Z,99.90
2018-09-29T01:26:09.549Z,99.90
2018-09-29T01:28:38.457Z,99.90
2018-09-29T01:31:07.927Z,99.90
2018-09-29T01:33:36.884Z,99.90
2018-09-29T01:36:05.828Z,99.90
2018-09-29T01:38:34.700Z,99.90
2018-09-29T01:41:03.644Z,99.90
2018-09-29T01:43:32.574Z,99.90
2018-09-29T01:46:01.422Z,99.90
2018-09-29T01:48:30.299Z,99.90
2018-09-29T01:50:59.252Z,99.90
2018-09-29T01:53:28.126Z,99.90
2018-09-29T01:55:56.968Z,99.90
2018-09-29T01:58:25.876Z,99.90
2018-09-29T02:00:54.738Z,99.90
2018-09-29T02:03:23.612Z,99.90
2018-09-29T02:05:52.519Z,99.90
2018-09-29T02:08:21.486Z,99.90
2018-09-29T02:10:50.426Z,99.90
2018-09-29T02:13:19.328Z,99.90
2018-09-29T02:15:48.169Z,99.90
2018-09-29T02:18:17.028Z,99.90
2018-09-29T02:20:45.915Z,99.90
2018-09-29T02:23:14.763Z,99.90
2018-09-29T02:25:43.644Z,99.90
2018-09-29T02:28:13.518Z,99.90
2018-09-29T02:30:42.408Z,99.90
2018-09-29T02:33:11.308Z,99.90
2018-09-29T02:35:40.184Z,99.90
2018-09-29T02:38:09.031Z,99.90
2018-09-29T02:40:37.891Z,99.90
2018-09-29T02:43:06.937Z,99.90
2018-09-29T02:45:35.805Z,99.90
2018-09-29T02:48:04.686Z,99.90
2018-09-29T02:50:33.608Z,99.90
2018-09-29T02:53:02.540Z,99.90
2018-09-29T02:55:31.387Z,99.90
2018-09-29T02:58:00.285Z,99.90
2018-09-29T03:00:29.141Z,99.90
2018-09-29T03:02:58.035Z,99.90
2018-09-29T03:05:26.971Z,99.90
2018-09-29T03:07:55.893Z,99.90
2018-09-29T03:10:24.756Z,99.90
2018-09-29T03:12:53.651Z,99.90
2018-09-29T03:15:22.558Z,99.90
2018-09-29T03:17:51.580Z,99.90
2018-09-29T03:20:20.573Z,99.90
2018-09-29T03:22:49.459Z,99.90
2018-09-29T03:25:18.374Z,99.90
2018-09-29T03:27:47.260Z,99.90
2018-09-29T03:30:16.146Z,99.90
2018-09-29T03:32:45.054Z,99.90
2018-09-29T03:35:13.978Z,99.90
2018-09-29T03:37:42.817Z,99.90
2018-09-29T03:40:11.764Z,99.90
2018-09-29T03:42:40.647Z,99.90
2018-09-29T03:45:09.536Z,99.90
2018-09-29T03:47:38.449Z,99.90
2018-09-29T03:50:07.335Z,99.90
2018-09-29T03:52:36.214Z,99.90
2018-09-29T03:55:05.146Z,99.90
2018-09-29T03:57:34.048Z,99.90
2018-09-29T04:00:03.046Z,99.90
2018-09-29T04:02:31.925Z,99.90
2018-09-29T04:05:00.829Z,99.90
2018-09-29T04:07:29.760Z,99.90
2018-09-29T04:09:58.704Z,99.90
2018-09-29T04:12:27.568Z,99.90
2018-09-29T04:14:56.455Z,99.90
2018-09-29T04:17:25.343Z,99.90
2018-09-29T04:19:54.259Z,99.90
2018-09-29T04:22:23.127Z,99.90
2018-09-29T04:24:52.023Z,99.90
2018-09-29T04:27:20.930Z,99.90
2018-09-29T04:29:49.820Z,99.90
2018-09-29T04:32:18.692Z,99.90
2018-09-29T04:34:47.595Z,99.90
2018-09-29T04:37:16.495Z,99.90
2018-09-29T04:39:45.359Z,99.90
2018-09-29T04:42:14.273Z,99.90
2018-09-29T04:44:43.153Z,99.90
2018-09-29T04:47:12.012Z,99.90
2018-09-29T04:49:40.929Z,99.90
2018-09-29T04:52:09.836Z,99.90
2018-09-29T04:54:38.740Z,99.90
2018-09-29T04:57:07.695Z,99.90
2018-09-29T04:59:36.606Z,99.90
2018-09-29T05:02:05.615Z,99.90
2018-09-29T05:04:34.503Z,99.90
2018-09-29T05:07:03.395Z,99.90
2018-09-29T05:09:32.310Z,99.90
2018-09-29T05:12:01.189Z,99.90
2018-09-29T05:14:30.110Z,99.90
2018-09-29T05:16:59.000Z,99.90
2018-09-29T05:19:27.852Z,99.90
2018-09-29T05:21:56.863Z,99.90
2018-09-29T05:24:25.745Z,99.90
2018-09-29T05:26:54.620Z,99.90
2018-09-29T05:29:23.555Z,99.90
2018-09-29T05:31:52.469Z,99.90
2018-09-29T05:34:21.355Z,99.90
2018-09-29T05:36:50.253Z,99.90
2018-09-29T05:39:19.278Z,99.90
2018-09-29T05:41:48.236Z,99.90
2018-09-29T05:44:17.222Z,99.90
2018-09-29T05:46:46.148Z,99.90
2018-09-29T05:49:15.049Z,99.90
2018-09-29T05:51:44.129Z,99.90
2018-09-29T05:54:13.061Z,99.90
2018-09-29T05:56:44.449Z,99.90
2018-09-29T05:59:13.425Z,99.90
2018-09-29T06:01:42.379Z,99.90
2018-09-29T06:04:11.743Z,99.90
2018-09-29T06:06:40.644Z,99.90
2018-09-29T06:09:10.073Z,99.90
2018-09-29T06:11:39.053Z,99.90
2018-09-29T06:14:08.054Z,99.90
2018-09-29T06:16:37.037Z,99.90
2018-09-29T06:19:06.145Z,99.90
2018-09-29T06:21:35.026Z,99.90
2018-09-29T06:24:04.548Z,99.60
2018-09-29T06:26:33.473Z,99.50
2018-09-29T06:29:02.373Z,99.00
2018-09-29T06:31:31.425Z,98.30
2018-09-29T06:34:00.309Z,98.00
2018-09-29T06:36:29.198Z,97.50
2018-09-29T06:38:58.183Z,98.30
2018-09-29T06:41:27.124Z,97.50
2018-09-29T06:43:56.057Z,97.20
2018-09-29T06:46:25.060Z,97.70
2018-09-29T06:48:54.084Z,98.00
2018-09-29T06:51:23.057Z,98.30
2018-09-29T06:53:51.992Z,96.70
2018-09-29T06:56:21.085Z,97.00
2018-09-29T06:58:50.041Z,96.10
2018-09-29T07:01:19.084Z,96.20
2018-09-29T07:03:48.256Z,96.10
2018-09-29T07:06:17.275Z,94.70
2018-09-29T07:08:46.249Z,94.30
2018-09-29T07:11:15.204Z,93.40
2018-09-29T07:13:44.236Z,93.00
2018-09-29T07:16:13.189Z,92.70
2018-09-29T07:18:42.088Z,93.30
2018-09-29T07:21:10.991Z,93.30
2018-09-29T07:23:39.956Z,92.80
2018-09-29T07:26:09.015Z,93.00
2018-09-29T07:28:37.951Z,90.90
2018-09-29T07:31:06.949Z,90.10
2018-09-29T07:33:36.068Z,90.00
2018-09-29T07:36:05.435Z,89.90
2018-09-29T07:38:34.421Z,87.50
2018-09-29T07:41:03.397Z,87.10
2018-09-29T07:43:32.382Z,85.50
2018-09-29T07:46:01.408Z,86.60
2018-09-29T07:48:30.371Z,85.80
2018-09-29T07:50:59.415Z,84.10
2018-09-29T07:53:28.451Z,82.90
2018-09-29T07:55:57.504Z,82.40
2018-09-29T07:58:26.456Z,82.90
2018-09-29T08:00:55.344Z,83.70
2018-09-29T08:03:24.306Z,83.10
2018-09-29T08:05:53.240Z,83.40
2018-09-29T08:08:22.245Z,82.80
2018-09-29T08:10:51.347Z,82.70
2018-09-29T08:13:20.349Z,82.50
2018-09-29T08:15:49.287Z,80.30
2018-09-29T08:18:18.207Z,79.50
2018-09-29T08:20:47.229Z,78.90
2018-09-29T08:23:16.109Z,79.30
2018-09-29T08:25:44.979Z,78.90
2018-09-29T08:28:13.915Z,78.20
2018-09-29T08:30:42.891Z,76.70
2018-09-29T08:33:11.865Z,75.80
2018-09-29T08:35:40.833Z,74.60
2018-09-29T08:38:09.821Z,74.20
2018-09-29T08:40:38.750Z,75.10
2018-09-29T08:43:07.746Z,76.80
2018-09-29T08:45:36.677Z,77.00
2018-09-29T08:48:05.928Z,73.80
2018-09-29T08:50:34.825Z,71.30
2018-09-29T08:53:03.836Z,71.20
2018-09-29T08:55:32.789Z,69.60
2018-09-29T08:58:01.689Z,70.70
2018-09-29T09:00:30.603Z,68.20
2018-09-29T09:02:59.997Z,68.00
2018-09-29T09:05:29.547Z,68.00
2018-09-29T09:07:58.501Z,67.60
2018-09-29T09:10:27.831Z,66.40
2018-09-29T09:12:57.479Z,65.70
2018-09-29T09:15:26.777Z,65.30
2018-09-29T09:17:55.713Z,64.80
2018-09-29T09:20:24.692Z,64.80
2018-09-29T09:22:53.722Z,62.40
2018-09-29T09:25:22.676Z,61.90
2018-09-29T09:27:51.773Z,61.60
2018-09-29T09:30:20.705Z,60.20
2018-09-29T09:32:49.567Z,60.40
2018-09-29T09:35:18.549Z,59.30
2018-09-29T09:37:47.442Z,58.70
2018-09-29T09:40:16.533Z,57.20
2018-09-29T09:42:45.473Z,56.80
2018-09-29T09:45:14.357Z,57.20
2018-09-29T09:47:43.742Z,58.00
2018-09-29T09:50:12.711Z,56.90
2018-09-29T09:52:41.677Z,56.60
2018-09-29T09:55:10.580Z,56.50
2018-09-29T09:57:39.577Z,55.90
2018-09-29T10:00:08.635Z,56.00
2018-09-29T10:02:43.460Z,56.50
2018-09-29T10:05:12.428Z,57.30
2018-09-29T10:07:41.309Z,57.00
2018-09-29T10:10:10.192Z,56.80
2018-09-29T10:12:39.106Z,56.10
2018-09-29T10:15:08.175Z,55.40
2018-09-29T10:17:37.233Z,55.90
2018-09-29T10:20:06.463Z,54.90
2018-09-29T10:22:35.442Z,54.50
2018-09-29T10:25:04.476Z,55.30
2018-09-29T10:27:33.523Z,55.40
2018-09-29T10:30:02.475Z,55.00
2018-09-29T10:32:31.394Z,55.30
2018-09-29T10:35:00.402Z,55.00
2018-09-29T10:37:29.446Z,55.40
2018-09-29T10:39:58.382Z,55.00
2018-09-29T10:42:27.416Z,52.60
2018-09-29T10:44:56.328Z,51.70
2018-09-29T10:47:25.251Z,52.00
2018-09-29T10:49:54.271Z,52.20
2018-09-29T10:52:23.189Z,52.10
2018-09-29T10:54:52.065Z,50.90
2018-09-29T10:57:20.988Z,51.60
2018-09-29T10:59:49.880Z,51.50
2018-09-29T11:02:18.841Z,50.70
2018-09-29T11:04:47.750Z,50.20
2018-09-29T11:07:16.712Z,51.00
2018-09-29T11:09:45.624Z,50.90
2018-09-29T11:12:14.604Z,51.30
2018-09-29T11:14:43.977Z,51.60
2018-09-29T11:17:13.107Z,51.40
2018-09-29T11:19:42.054Z,51.80
2018-09-29T11:22:11.061Z,51.30
2018-09-29T11:24:40.021Z,51.10
2018-09-29T11:27:08.977Z,51.60
2018-09-29T11:29:38.073Z,50.90
2018-09-29T11:32:06.956Z,50.10
2018-09-29T11:34:36.057Z,49.80
2018-09-29T11:37:05.100Z,50.50
2018-09-29T11:39:34.027Z,50.50
2018-09-29T11:42:03.501Z,49.80
2018-09-29T11:44:32.500Z,49.10
2018-09-29T11:47:01.530Z,47.00
2018-09-29T11:49:30.654Z,46.60
2018-09-29T11:51:59.927Z,46.90
2018-09-29T11:54:29.653Z,47.10
2018-09-29T11:56:58.643Z,48.40
2018-09-29T11:59:27.557Z,49.00
2018-09-29T12:01:56.695Z,49.10
2018-09-29T12:04:25.604Z,49.60
2018-09-29T12:06:54.517Z,49.10
2018-09-29T12:09:23.486Z,49.30
2018-09-29T12:11:53.356Z,48.80
2018-09-29T12:14:22.283Z,48.90
2018-09-29T12:16:51.247Z,47.70
2018-09-29T12:19:20.223Z,47.10
2018-09-29T12:21:49.136Z,46.60
2018-09-29T12:24:18.069Z,46.00
2018-09-29T12:26:47.046Z,47.20
2018-09-29T12:29:16.050Z,47.00
2018-09-29T12:31:44.999Z,48.70
2018-09-29T12:34:13.919Z,46.50
2018-09-29T12:36:42.840Z,47.50
2018-09-29T12:39:12.141Z,48.70
2018-09-29T12:41:41.327Z,49.40
2018-09-29T12:44:10.299Z,50.10
2018-09-29T12:46:39.188Z,50.70
2018-09-29T12:49:08.089Z,51.20
2018-09-29T12:51:37.128Z,51.10
2018-09-29T12:54:06.011Z,50.90
2018-09-29T12:56:34.985Z,51.60
2018-09-29T12:59:04.076Z,51.80
2018-09-29T13:01:33.128Z,52.40
2018-09-29T13:04:01.993Z,52.90
2018-09-29T13:06:30.860Z,53.40
2018-09-29T13:08:59.836Z,54.20
2018-09-29T13:11:28.858Z,54.40
2018-09-29T13:13:57.818Z,54.60
2018-09-29T13:16:27.704Z,55.10
2018-09-29T13:18:56.669Z,53.90
2018-09-29T13:21:25.559Z,52.70
2018-09-29T13:23:54.644Z,52.90
2018-09-29T13:26:24.787Z,52.40
2018-09-29T13:28:54.462Z,51.90
2018-09-29T13:31:23.362Z,52.40
2018-09-29T13:33:52.399Z,51.60
2018-09-29T13:36:21.300Z,51.30
2018-09-29T13:38:50.739Z,52.00
2018-09-29T13:41:19.823Z,51.50
2018-09-29T13:43:48.717Z,51.80
2018-09-29T13:46:18.645Z,53.10
2018-09-29T13:48:47.560Z,52.60
2018-09-29T13:51:16.497Z,53.20
2018-09-29T13:53:45.459Z,53.70
2018-09-29T13:56:14.370Z,54.30
2018-09-29T13:58:43.314Z,54.80
2018-09-29T14:01:12.242Z,55.50
2018-09-29T14:03:41.197Z,55.50
2018-09-29T14:06:10.120Z,55.60
2018-09-29T14:08:39.156Z,56.00
2018-09-29T14:11:07.988Z,56.10
2018-09-29T14:13:36.971Z,56.80
2018-09-29T14:16:06.628Z,57.00
2018-09-29T14:18:35.520Z,56.70
2018-09-29T14:21:04.468Z,56.50
2018-09-29T14:23:33.389Z,56.00
2018-09-29T14:26:02.659Z,55.70
2018-09-29T14:28:31.520Z,54.90
2018-09-29T14:31:00.459Z,55.10
2018-09-29T14:33:29.434Z,54.80
2018-09-29T14:35:58.326Z,55.10
2018-09-29T14:38:27.203Z,54.50
2018-09-29T14:40:56.152Z,54.30
2018-09-29T14:43:25.094Z,54.90
2018-09-29T14:45:54.048Z,54.10
2018-09-29T14:48:23.075Z,54.50
2018-09-29T14:50:52.361Z,56.50
2018-09-29T14:53:21.301Z,55.30
2018-09-29T14:55:50.306Z,54.80
2018-09-29T14:58:19.227Z,54.80
2018-09-29T15:00:48.123Z,54.20
2018-09-29T15:03:17.059Z,55.30
2018-09-29T15:05:46.070Z,53.90
2018-09-29T15:08:17.477Z,53.40
2018-09-29T15:10:49.064Z,53.00
2018-09-29T15:13:18.040Z,52.50
2018-09-29T15:15:46.925Z,52.50
2018-09-29T15:18:15.843Z,53.50
2018-09-29T15:20:44.788Z,53.30
2018-09-29T15:23:13.688Z,53.20
2018-09-29T15:25:42.565Z,54.10
2018-09-29T15:28:11.530Z,54.00
2018-09-29T15:30:42.236Z,54.80
2018-09-29T15:33:11.125Z,54.20
2018-09-29T15:35:40.145Z,55.10
2018-09-29T15:38:09.174Z,55.50
2018-09-29T15:40:38.133Z,56.00
2018-09-29T15:43:07.132Z,56.60
2018-09-29T15:45:37.018Z,57.30
2018-09-29T15:48:06.155Z,57.60
2018-09-29T15:50:35.164Z,57.40
2018-09-29T15:53:04.158Z,58.00
2018-09-29T15:55:33.245Z,58.70
2018-09-29T15:58:02.181Z,60.20
2018-09-29T16:00:31.277Z,60.50
2018-09-29T16:03:00.181Z,61.90
2018-09-29T16:05:29.091Z,62.50
2018-09-29T16:07:58.035Z,63.30
2018-09-29T16:10:27.079Z,65.00
2018-09-29T16:12:55.991Z,65.00
2018-09-29T16:15:25.001Z,68.30
2018-09-29T16:17:53.933Z,67.70
2018-09-29T16:20:22.842Z,69.10
2018-09-29T16:22:51.863Z,68.00
2018-09-29T16:25:20.763Z,70.50
2018-09-29T16:27:49.661Z,71.70
2018-09-29T16:30:18.749Z,73.30
2018-09-29T16:32:47.737Z,77.00
2018-09-29T16:35:16.681Z,76.10
2018-09-29T16:37:45.629Z,77.30
2018-09-29T16:40:14.588Z,78.90
2018-09-29T16:42:43.593Z,80.50
2018-09-29T16:45:12.532Z,82.50
2018-09-29T16:47:41.430Z,84.20
2018-09-29T16:50:11.301Z,86.50
2018-09-29T16:52:40.348Z,88.60
2018-09-29T16:55:09.281Z,88.00
2018-09-29T16:57:38.139Z,88.70
2018-09-29T17:00:07.159Z,90.60
2018-09-29T17:02:36.038Z,91.00
2018-09-29T17:05:04.970Z,91.00
2018-09-29T17:07:33.961Z,91.00
2018-09-29T17:10:02.969Z,91.60
2018-09-29T17:12:32.584Z,91.80
2018-09-29T17:15:01.525Z,91.80
2018-09-29T17:17:30.407Z,91.80
2018-09-29T17:19:59.362Z,92.20
2018-09-29T17:22:28.319Z,92.50
2018-09-29T17:24:57.211Z,92.80
2018-09-29T17:27:27.206Z,92.90
2018-09-29T17:29:57.686Z,93.00
2018-09-29T17:32:26.664Z,93.30
2018-09-29T17:34:55.544Z,93.50
2018-09-29T17:37:24.439Z,93.80
2018-09-29T17:39:53.515Z,93.80
2018-09-29T17:42:22.523Z,93.90
2018-09-29T17:44:51.531Z,94.30
2018-09-29T17:47:20.479Z,94.60
2018-09-29T17:49:49.555Z,94.90
2018-09-29T17:52:18.551Z,95.10
2018-09-29T17:54:47.480Z,95.10
2018-09-29T17:57:16.584Z,95.10
2018-09-29T17:59:45.571Z,95.50
2018-09-29T18:02:14.601Z,95.70
2018-09-29T18:04:44.189Z,96.00
2018-09-29T18:07:13.188Z,96.10
2018-09-29T18:09:43.485Z,96.40
2018-09-29T18:12:12.429Z,96.40
2018-09-29T18:14:41.447Z,96.50
2018-09-29T18:17:10.355Z,96.80
2018-09-29T18:19:39.436Z,97.10
2018-09-29T18:22:09.310Z,97.50
2018-09-29T18:24:38.427Z,97.50
2018-09-29T18:27:07.441Z,97.40
2018-09-29T18:29:36.478Z,97.70
2018-09-29T18:32:05.384Z,98.00
2018-09-29T18:34:34.281Z,98.20
2018-09-29T18:37:03.548Z,98.30
2018-09-29T18:39:32.525Z,98.10
2018-09-29T18:42:01.723Z,97.90
2018-09-29T18:44:30.972Z,98.10
2018-09-29T18:46:59.943Z,98.00
2018-09-29T18:49:28.861Z,98.20
2018-09-29T18:51:57.852Z,98.10
2018-09-29T18:54:26.761Z,98.50
2018-09-29T18:56:56.242Z,98.80
2018-09-29T18:59:25.267Z,98.60
2018-09-29T19:01:54.461Z,98.50
2018-09-29T19:04:23.423Z,98.50
2018-09-29T19:06:53.281Z,98.70
2018-09-29T19:09:22.966Z,98.60
2018-09-29T19:11:51.905Z,99.10
2018-09-29T19:14:21.858Z,99.20
2018-09-29T19:16:50.758Z,99.00
2018-09-29T19:19:19.645Z,98.90
2018-09-29T19:21:48.765Z,99.20
2018-09-29T19:24:17.712Z,99.00
2018-09-29T19:26:46.702Z,98.90
2018-09-29T19:29:15.732Z,98.80
2018-09-29T19:31:44.781Z,99.00
2018-09-29T19:34:14.163Z,99.10
2018-09-29T19:36:43.212Z,99.50
2018-09-29T19:39:12.289Z,99.40
2018-09-29T19:41:41.245Z,99.10
2018-09-29T19:44:10.200Z,99.40
2018-09-29T19:46:39.107Z,99.50
2018-09-29T19:49:08.100Z,99.60
2018-09-29T19:51:37.047Z,99.70
2018-09-29T19:54:05.953Z,99.90
2018-09-29T19:56:35.524Z,99.90
2018-09-29T19:59:06.006Z,99.90
2018-09-29T20:01:35.011Z,99.90
2018-09-29T20:04:04.214Z,99.90
2018-09-29T20:06:33.271Z,99.90
2018-09-29T20:09:02.299Z,99.30
2018-09-29T20:11:31.241Z,99.30
2018-09-29T20:14:00.141Z,99.10
2018-09-29T20:16:29.080Z,99.40
2018-09-29T20:18:58.949Z,99.30
2018-09-29T20:21:28.301Z,99.40
2018-09-29T20:23:57.278Z,99.60
2018-09-29T20:26:26.207Z,99.40
2018-09-29T20:28:55.127Z,99.70
2018-09-29T20:31:24.043Z,99.60
2018-09-29T20:33:53.046Z,99.60
2018-09-29T20:36:22.028Z,99.80
2018-09-29T20:38:50.979Z,99.90
2018-09-29T20:41:19.954Z,99.90
2018-09-29T20:43:48.848Z,99.90
2018-09-29T20:46:17.810Z,99.90
2018-09-29T20:48:46.695Z,99.90
2018-09-29T20:51:15.635Z,99.90
2018-09-29T20:53:45.162Z,99.70
2018-09-29T20:56:14.065Z,99.80
2018-09-29T20:58:43.020Z,99.90
2018-09-29T21:01:12.187Z,99.90
2018-09-29T21:03:41.051Z,99.90
2018-09-29T21:06:09.911Z,99.90
2018-09-29T21:08:38.823Z,99.90
2018-09-29T21:11:07.811Z,99.90
2018-09-29T21:13:36.818Z,99.90
2018-09-29T21:16:05.747Z,99.90
2018-09-29T21:18:34.692Z,99.90
2018-09-29T21:21:03.712Z,99.90
2018-09-29T21:23:33.016Z,99.90
2018-09-29T21:26:03.337Z,99.80
2018-09-29T21:28:33.395Z,99.90
2018-09-29T21:31:02.451Z,99.90
2018-09-29T21:33:31.460Z,99.90
2018-09-29T21:36:00.375Z,99.90
2018-09-29T21:38:29.387Z,99.90
2018-09-29T21:40:58.376Z,99.90
2018-09-29T21:43:27.351Z,99.90
2018-09-29T21:45:56.441Z,99.80
2018-09-29T21:48:25.497Z,99.80
2018-09-29T21:50:54.475Z,99.90
2018-09-29T21:53:23.466Z,99.90
2018-09-29T21:55:52.521Z,99.90
2018-09-29T21:58:21.488Z,99.90
2018-09-29T22:00:50.515Z,99.80
2018-09-29T22:03:19.532Z,99.90
2018-09-29T22:05:48.575Z,99.90
2018-09-29T22:08:17.604Z,99.90
2018-09-29T22:10:46.625Z,99.90
2018-09-29T22:13:15.667Z,99.90
2018-09-29T22:15:44.673Z,99.90
2018-09-29T22:18:13.649Z,99.90
2018-09-29T22:20:42.657Z,99.90
2018-09-29T22:23:11.730Z,99.90
2018-09-29T22:25:40.770Z,99.90
2018-09-29T22:28:10.786Z,99.90
2018-09-29T22:30:39.791Z,99.90
2018-09-29T22:33:08.815Z,99.90
2018-09-29T22:35:37.749Z,99.90
2018-09-29T22:38:06.917Z,99.90
2018-09-29T22:40:35.998Z,99.90
2018-09-29T22:43:04.959Z,99.90
2018-09-29T22:45:33.929Z,99.90
2018-09-29T22:48:02.899Z,99.90
2018-09-29T22:50:31.937Z,99.90
2018-09-29T22:53:00.902Z,99.90
2018-09-29T22:55:29.965Z,99.90
2018-09-29T22:57:58.953Z,99.90
2018-09-29T23:00:27.941Z,99.90
2018-09-29T23:02:56.936Z,99.90
2018-09-29T23:05:25.931Z,99.90
2018-09-29T23:07:54.895Z,99.90
2018-09-29T23:10:23.893Z,99.90
2018-09-29T23:12:52.906Z,99.90
2018-09-29T23:15:21.851Z,99.90
2018-09-29T23:17:50.842Z,99.90
2018-09-29T23:20:19.773Z,99.90
2018-09-29T23:22:48.689Z,99.90
2018-09-29T23:25:17.625Z,99.90
2018-09-29T23:27:46.709Z,99.90
2018-09-29T23:30:16.081Z,99.90
2018-09-29T23:32:45.157Z,99.90
2018-09-29T23:35:14.147Z,99.90
2018-09-29T23:37:43.110Z,99.90
2018-09-29T23:40:12.040Z,99.90
2018-09-29T23:42:41.076Z,99.90
2018-09-29T23:45:10.004Z,99.90
2018-09-29T23:47:38.921Z,99.90
2018-09-29T23:50:07.851Z,99.90
2018-09-29T23:52:36.768Z,99.90
2018-09-29T23:55:05.675Z,99.90
2018-09-29T23:57:34.613Z,99.90
